sensor_id;sensor_type;location;lat;lon;timestamp;temperature;humidity
19952;DHT22;10137;49.406;19.484;2022-09-28T00:01:13;9.00;99.90
19952;DHT22;10137;49.406;19.484;2022-09-28T00:03:42;8.90;99.90
19952;DHT22;10137;49.406;19.484;2022-09-28T00:06:13;8.90;99.90
19952;DHT22;10137;49.406;19.484;2022-09-28T00:08:41;9.00;99.90
19952;DHT22;10137;49.406;19.484;2022-09-28T00:11:12;9.00;99.90
19952;DHT22;10137;49.406;19.484;2022-09-28T00:13:42;9.10;99.90
19952;DHT22;10137;49.406;19.484;2022-09-28T00:16:13;9.10;99.90
19952;DHT22;10137;49.406;19.484;2022-09-28T00:18:43;9.10;99.90
19952;DHT22;10137;49.406;19.484;2022-09-28T00:21:22;9.10;99.90
19952;DHT22;10137;49.406;19.484;2022-09-28T00:23:51;9.10;99.90
19952;DHT22;10137;49.406;19.484;2022-09-28T00:26:38;9.20;99.90
19952;DHT22;10137;49.406;19.484;2022-09-28T00:29:17;9.10;99.90
19952;DHT22;10137;49.406;19.484;2022-09-28T00:31:45;9.10;99.90
19952;DHT22;10137;49.406;19.484;2022-09-28T00:34:14;9.10;99.90
19952;DHT22;10137;49.406;19.484;2022-09-28T00:36:44;9.10;99.90
19952;DHT22;10137;49.406;19.484;2022-09-28T00:39:13;9.10;99.90
19952;DHT22;10137;49.406;19.484;2022-09-28T00:41:41;9.20;99.90
19952;DHT22;10137;49.406;19.484;2022-09-28T00:44:38;9.20;99.90
19952;DHT22;10137;49.406;19.484;2022-09-28T00:50:07;9.10;99.90
19952;DHT22;10137;49.406;19.484;2022-09-28T00:52:39;9.10;99.90
19952;DHT22;10137;49.406;19.484;2022-09-28T00:55:12;9.10;99.90
19952;DHT22;10137;49.406;19.484;2022-09-28T00:57:44;9.00;99.90
19952;DHT22;10137;49.406;19.484;2022-09-28T01:00:18;8.90;99.90
19952;DHT22;10137;49.406;19.484;2022-09-28T01:02:47;8.80;99.90
19952;DHT22;10137;49.406;19.484;2022-09-28T01:05:17;8.80;99.90
19952;DHT22;10137;49.406;19.484;2022-09-28T01:07:45;8.80;99.90
19952;DHT22;10137;49.406;19.484;2022-09-28T01:10:14;8.70;99.90
19952;DHT22;10137;49.406;19.484;2022-09-28T01:12:42;8.70;99.90
19952;DHT22;10137;49.406;19.484;2022-09-28T01:15:13;8.80;99.90
19952;DHT22;10137;49.406;19.484;2022-09-28T01:17:56;8.80;99.90
19952;DHT22;10137;49.406;19.484;2022-09-28T01:20:53;8.80;99.90
19952;DHT22;10137;49.406;19.484;2022-09-28T01:26:40;8.80;99.90
19952;DHT22;10137;49.406;19.484;2022-09-28T01:29:16;8.70;99.90
19952;DHT22;10137;49.406;19.484;2022-09-28T01:31:50;8.70;99.90
19952;DHT22;10137;49.406;19.484;2022-09-28T01:34:23;8.80;99.90
19952;DHT22;10137;49.406;19.484;2022-09-28T01:36:57;8.80;99.90
19952;DHT22;10137;49.406;19.484;2022-09-28T01:39:31;8.70;99.90
19952;DHT22;10137;49.406;19.484;2022-09-28T01:42:05;8.70;99.90
19952;DHT22;10137;49.406;19.484;2022-09-28T01:44:39;8.60;99.90
19952;DHT22;10137;49.406;19.484;2022-09-28T01:47:11;8.60;99.90
19952;DHT22;10137;49.406;19.484;2022-09-28T01:49:43;8.60;99.90
19952;DHT22;10137;49.406;19.484;2022-09-28T01:52:16;8.50;99.90
19952;DHT22;10137;49.406;19.484;2022-09-28T01:54:49;8.50;99.90
19952;DHT22;10137;49.406;19.484;2022-09-28T01:57:23;8.60;99.90
19952;DHT22;10137;49.406;19.484;2022-09-28T01:59:58;8.40;99.90
19952;DHT22;10137;49.406;19.484;2022-09-28T02:02:31;8.50;99.90
19952;DHT22;10137;49.406;19.484;2022-09-28T02:05:06;8.50;99.90
19952;DHT22;10137;49.406;19.484;2022-09-28T02:07:38;8.60;99.90
19952;DHT22;10137;49.406;19.484;2022-09-28T02:10:12;8.60;99.90
19952;DHT22;10137;49.406;19.484;2022-09-28T02:12:46;8.50;99.90
19952;DHT22;10137;49.406;19.484;2022-09-28T02:15:19;8.50;99.90
19952;DHT22;10137;49.406;19.484;2022-09-28T02:17:48;8.40;99.90
19952;DHT22;10137;49.406;19.484;2022-09-28T02:20:17;8.30;99.90
19952;DHT22;10137;49.406;19.484;2022-09-28T02:22:49;8.30;99.90
19952;DHT22;10137;49.406;19.484;2022-09-28T02:25:23;8.30;99.90
19952;DHT22;10137;49.406;19.484;2022-09-28T02:27:57;8.30;99.90
19952;DHT22;10137;49.406;19.484;2022-09-28T02:30:28;8.30;99.90
19952;DHT22;10137;49.406;19.484;2022-09-28T02:33:01;8.20;99.90
19952;DHT22;10137;49.406;19.484;2022-09-28T02:35:30;8.20;99.90
19952;DHT22;10137;49.406;19.484;2022-09-28T02:38:00;8.20;99.90
19952;DHT22;10137;49.406;19.484;2022-09-28T02:40:31;8.10;99.90
19952;DHT22;10137;49.406;19.484;2022-09-28T02:43:10;8.10;99.90
19952;DHT22;10137;49.406;19.484;2022-09-28T02:45:55;8.10;99.90
19952;DHT22;10137;49.406;19.484;2022-09-28T02:48:49;7.90;99.90
19952;DHT22;10137;49.406;19.484;2022-09-28T02:51:26;7.90;99.90
19952;DHT22;10137;49.406;19.484;2022-09-28T02:54:15;7.90;99.90
19952;DHT22;10137;49.406;19.484;2022-09-28T02:57:30;7.70;99.90
19952;DHT22;10137;49.406;19.484;2022-09-28T03:00:05;7.60;99.90
19952;DHT22;10137;49.406;19.484;2022-09-28T03:02:41;7.60;99.90
19952;DHT22;10137;49.406;19.484;2022-09-28T03:05:19;7.50;99.90
19952;DHT22;10137;49.406;19.484;2022-09-28T03:07:54;7.50;99.90
19952;DHT22;10137;49.406;19.484;2022-09-28T03:10:29;7.60;99.90
19952;DHT22;10137;49.406;19.484;2022-09-28T03:13:02;7.60;99.90
19952;DHT22;10137;49.406;19.484;2022-09-28T03:15:34;7.60;99.90
19952;DHT22;10137;49.406;19.484;2022-09-28T03:18:03;7.60;99.90
19952;DHT22;10137;49.406;19.484;2022-09-28T03:20:32;7.60;99.90
19952;DHT22;10137;49.406;19.484;2022-09-28T03:23:06;7.60;99.90
19952;DHT22;10137;49.406;19.484;2022-09-28T03:25:34;7.60;99.90
19952;DHT22;10137;49.406;19.484;2022-09-28T03:28:02;7.60;99.90
19952;DHT22;10137;49.406;19.484;2022-09-28T03:30:33;7.60;99.90
19952;DHT22;10137;49.406;19.484;2022-09-28T03:33:01;7.60;99.90
19952;DHT22;10137;49.406;19.484;2022-09-28T03:35:28;7.60;99.90
19952;DHT22;10137;49.406;19.484;2022-09-28T03:37:56;7.50;99.90
19952;DHT22;10137;49.406;19.484;2022-09-28T03:40:25;7.50;99.90
19952;DHT22;10137;49.406;19.484;2022-09-28T03:42:53;7.50;99.90
19952;DHT22;10137;49.406;19.484;2022-09-28T03:45:21;7.50;99.90
19952;DHT22;10137;49.406;19.484;2022-09-28T03:47:51;7.60;99.90
19952;DHT22;10137;49.406;19.484;2022-09-28T03:50:19;7.50;99.90
19952;DHT22;10137;49.406;19.484;2022-09-28T03:52:47;7.50;99.90
19952;DHT22;10137;49.406;19.484;2022-09-28T03:55:17;7.40;99.90
19952;DHT22;10137;49.406;19.484;2022-09-28T03:57:52;7.40;99.90
19952;DHT22;10137;49.406;19.484;2022-09-28T04:00:20;7.30;99.90
19952;DHT22;10137;49.406;19.484;2022-09-28T04:02:48;7.30;99.90
19952;DHT22;10137;49.406;19.484;2022-09-28T04:05:17;7.30;99.90
19952;DHT22;10137;49.406;19.484;2022-09-28T04:07:46;7.30;99.90
19952;DHT22;10137;49.406;19.484;2022-09-28T04:10:14;7.30;99.90
19952;DHT22;10137;49.406;19.484;2022-09-28T04:12:42;7.30;99.90
19952;DHT22;10137;49.406;19.484;2022-09-28T04:15:11;7.30;99.90
19952;DHT22;10137;49.406;19.484;2022-09-28T04:17:40;7.40;99.90
19952;DHT22;10137;49.406;19.484;2022-09-28T04:20:08;7.40;99.90
19952;DHT22;10137;49.406;19.484;2022-09-28T04:22:38;7.50;99.90
19952;DHT22;10137;49.406;19.484;2022-09-28T04:25:09;7.50;99.90
19952;DHT22;10137;49.406;19.484;2022-09-28T04:27:37;7.50;99.90
19952;DHT22;10137;49.406;19.484;2022-09-28T04:30:23;7.50;99.90
19952;DHT22;10137;49.406;19.484;2022-09-28T04:32:50;7.60;99.90
19952;DHT22;10137;49.406;19.484;2022-09-28T04:35:20;7.60;99.90
19952;DHT22;10137;49.406;19.484;2022-09-28T04:37:50;7.60;99.90
19952;DHT22;10137;49.406;19.484;2022-09-28T04:40:20;7.60;99.90
19952;DHT22;10137;49.406;19.484;2022-09-28T04:42:54;7.60;99.90
19952;DHT22;10137;49.406;19.484;2022-09-28T04:45:23;7.50;99.90
19952;DHT22;10137;49.406;19.484;2022-09-28T04:47:56;7.50;99.90
19952;DHT22;10137;49.406;19.484;2022-09-28T04:50:26;7.50;99.90
19952;DHT22;10137;49.406;19.484;2022-09-28T04:52:59;7.60;99.90
19952;DHT22;10137;49.406;19.484;2022-09-28T04:55:28;7.70;99.90
19952;DHT22;10137;49.406;19.484;2022-09-28T04:58:04;7.80;99.90
19952;DHT22;10137;49.406;19.484;2022-09-28T05:00:31;7.90;99.90
19952;DHT22;10137;49.406;19.484;2022-09-28T05:03:01;8.00;99.90
19952;DHT22;10137;49.406;19.484;2022-09-28T05:05:29;8.10;99.90
19952;DHT22;10137;49.406;19.484;2022-09-28T05:07:58;8.20;99.90
19952;DHT22;10137;49.406;19.484;2022-09-28T05:10:25;8.20;99.90
19952;DHT22;10137;49.406;19.484;2022-09-28T05:12:53;8.20;99.90
19952;DHT22;10137;49.406;19.484;2022-09-28T05:15:20;8.20;99.90
19952;DHT22;10137;49.406;19.484;2022-09-28T05:17:48;8.30;99.90
19952;DHT22;10137;49.406;19.484;2022-09-28T05:20:21;8.40;99.90
19952;DHT22;10137;49.406;19.484;2022-09-28T05:22:49;8.50;99.90
19952;DHT22;10137;49.406;19.484;2022-09-28T05:25:19;8.70;99.90
19952;DHT22;10137;49.406;19.484;2022-09-28T05:27:47;8.70;99.90
19952;DHT22;10137;49.406;19.484;2022-09-28T05:30:16;8.60;99.90
19952;DHT22;10137;49.406;19.484;2022-09-28T05:32:44;8.60;99.90
19952;DHT22;10137;49.406;19.484;2022-09-28T05:35:12;8.50;99.90
19952;DHT22;10137;49.406;19.484;2022-09-28T05:37:41;8.40;99.90
19952;DHT22;10137;49.406;19.484;2022-09-28T05:40:10;8.40;99.90
19952;DHT22;10137;49.406;19.484;2022-09-28T05:42:39;8.40;99.90
19952;DHT22;10137;49.406;19.484;2022-09-28T05:45:08;8.40;99.90
19952;DHT22;10137;49.406;19.484;2022-09-28T05:47:38;8.40;99.90
19952;DHT22;10137;49.406;19.484;2022-09-28T05:50:08;8.30;99.90
19952;DHT22;10137;49.406;19.484;2022-09-28T05:52:36;8.30;99.90
19952;DHT22;10137;49.406;19.484;2022-09-28T05:55:08;8.30;99.90
19952;DHT22;10137;49.406;19.484;2022-09-28T05:57:36;8.30;99.90
19952;DHT22;10137;49.406;19.484;2022-09-28T06:00:10;8.40;99.90
19952;DHT22;10137;49.406;19.484;2022-09-28T06:02:38;8.40;99.90
19952;DHT22;10137;49.406;19.484;2022-09-28T06:05:05;8.50;99.90
19952;DHT22;10137;49.406;19.484;2022-09-28T06:07:32;8.70;99.90
19952;DHT22;10137;49.406;19.484;2022-09-28T06:09:59;8.80;99.90
19952;DHT22;10137;49.406;19.484;2022-09-28T06:12:26;9.00;99.90
19952;DHT22;10137;49.406;19.484;2022-09-28T06:14:53;9.30;99.90
19952;DHT22;10137;49.406;19.484;2022-09-28T06:17:23;9.60;99.90
19952;DHT22;10137;49.406;19.484;2022-09-28T06:19:49;10.00;99.90
19952;DHT22;10137;49.406;19.484;2022-09-28T06:22:19;10.10;99.90
19952;DHT22;10137;49.406;19.484;2022-09-28T06:24:46;10.40;99.90
19952;DHT22;10137;49.406;19.484;2022-09-28T06:27:16;10.60;99.90
19952;DHT22;10137;49.406;19.484;2022-09-28T06:29:46;10.70;99.90
19952;DHT22;10137;49.406;19.484;2022-09-28T06:32:15;10.90;99.90
19952;DHT22;10137;49.406;19.484;2022-09-28T06:34:45;10.90;99.90
19952;DHT22;10137;49.406;19.484;2022-09-28T06:37:13;11.10;99.90
19952;DHT22;10137;49.406;19.484;2022-09-28T06:39:41;11.10;99.90
19952;DHT22;10137;49.406;19.484;2022-09-28T06:42:09;11.10;99.90
19952;DHT22;10137;49.406;19.484;2022-09-28T06:44:37;11.20;99.90
19952;DHT22;10137;49.406;19.484;2022-09-28T06:47:05;11.10;99.90
19952;DHT22;10137;49.406;19.484;2022-09-28T06:49:36;10.90;99.90
19952;DHT22;10137;49.406;19.484;2022-09-28T06:52:07;10.90;99.90
19952;DHT22;10137;49.406;19.484;2022-09-28T06:54:38;10.90;99.90
19952;DHT22;10137;49.406;19.484;2022-09-28T06:57:05;10.90;99.90
19952;DHT22;10137;49.406;19.484;2022-09-28T06:59:32;10.90;99.90
19952;DHT22;10137;49.406;19.484;2022-09-28T07:01:59;11.20;99.90
19952;DHT22;10137;49.406;19.484;2022-09-28T07:04:26;11.40;99.90
19952;DHT22;10137;49.406;19.484;2022-09-28T07:06:53;11.70;99.90
19952;DHT22;10137;49.406;19.484;2022-09-28T07:09:23;11.80;99.90
19952;DHT22;10137;49.406;19.484;2022-09-28T07:11:50;11.90;99.90
19952;DHT22;10137;49.406;19.484;2022-09-28T07:14:18;12.20;99.90
19952;DHT22;10137;49.406;19.484;2022-09-28T07:16:46;12.20;99.90
19952;DHT22;10137;49.406;19.484;2022-09-28T07:19:13;12.60;99.90
19952;DHT22;10137;49.406;19.484;2022-09-28T07:21:41;12.80;99.90
19952;DHT22;10137;49.406;19.484;2022-09-28T07:24:08;12.90;99.90
19952;DHT22;10137;49.406;19.484;2022-09-28T07:26:40;13.10;99.90
19952;DHT22;10137;49.406;19.484;2022-09-28T07:29:10;13.30;99.90
19952;DHT22;10137;49.406;19.484;2022-09-28T07:31:37;13.40;99.90
19952;DHT22;10137;49.406;19.484;2022-09-28T07:34:05;13.60;99.90
19952;DHT22;10137;49.406;19.484;2022-09-28T07:36:32;13.60;99.90
19952;DHT22;10137;49.406;19.484;2022-09-28T07:39:00;13.50;99.90
19952;DHT22;10137;49.406;19.484;2022-09-28T07:41:27;13.50;99.90
19952;DHT22;10137;49.406;19.484;2022-09-28T07:43:59;13.90;99.90
19952;DHT22;10137;49.406;19.484;2022-09-28T07:46:31;14.10;99.90
19952;DHT22;10137;49.406;19.484;2022-09-28T07:48:58;14.00;99.90
19952;DHT22;10137;49.406;19.484;2022-09-28T07:51:25;14.50;99.90
19952;DHT22;10137;49.406;19.484;2022-09-28T07:53:52;14.80;99.90
19952;DHT22;10137;49.406;19.484;2022-09-28T07:56:19;14.80;99.90
19952;DHT22;10137;49.406;19.484;2022-09-28T07:58:47;15.00;99.90
19952;DHT22;10137;49.406;19.484;2022-09-28T08:01:16;15.10;99.90
19952;DHT22;10137;49.406;19.484;2022-09-28T08:03:44;15.50;99.90
19952;DHT22;10137;49.406;19.484;2022-09-28T08:06:13;15.50;99.90
19952;DHT22;10137;49.406;19.484;2022-09-28T08:08:42;15.10;99.90
19952;DHT22;10137;49.406;19.484;2022-09-28T08:11:10;15.40;99.90
19952;DHT22;10137;49.406;19.484;2022-09-28T08:13:37;15.10;99.90
19952;DHT22;10137;49.406;19.484;2022-09-28T08:16:05;15.00;99.90
19952;DHT22;10137;49.406;19.484;2022-09-28T08:18:34;15.10;99.90
19952;DHT22;10137;49.406;19.484;2022-09-28T08:21:01;15.30;99.90
19952;DHT22;10137;49.406;19.484;2022-09-28T08:23:46;15.60;99.90
19952;DHT22;10137;49.406;19.484;2022-09-28T08:26:13;15.60;99.90
19952;DHT22;10137;49.406;19.484;2022-09-28T08:28:42;15.20;99.90
19952;DHT22;10137;49.406;19.484;2022-09-28T08:31:09;15.20;99.90
19952;DHT22;10137;49.406;19.484;2022-09-28T08:33:40;15.60;99.90
19952;DHT22;10137;49.406;19.484;2022-09-28T08:36:09;16.00;99.90
19952;DHT22;10137;49.406;19.484;2022-09-28T08:38:37;16.30;99.90
19952;DHT22;10137;49.406;19.484;2022-09-28T08:41:14;16.10;97.80
19952;DHT22;10137;49.406;19.484;2022-09-28T08:44:02;16.60;98.20
19952;DHT22;10137;49.406;19.484;2022-09-28T08:46:35;16.70;98.90
19952;DHT22;10137;49.406;19.484;2022-09-28T08:49:09;16.90;96.30
19952;DHT22;10137;49.406;19.484;2022-09-28T08:51:44;16.80;97.50
19952;DHT22;10137;49.406;19.484;2022-09-28T08:54:25;16.80;95.80
19952;DHT22;10137;49.406;19.484;2022-09-28T08:56:58;17.40;97.90
19952;DHT22;10137;49.406;19.484;2022-09-28T08:59:35;17.00;94.80
19952;DHT22;10137;49.406;19.484;2022-09-28T09:02:13;17.20;95.60
19952;DHT22;10137;49.406;19.484;2022-09-28T09:04:43;17.30;95.00
19952;DHT22;10137;49.406;19.484;2022-09-28T09:10:46;17.80;92.90
19952;DHT22;10137;49.406;19.484;2022-09-28T09:13:40;17.80;92.60
19952;DHT22;10137;49.406;19.484;2022-09-28T09:16:20;17.70;90.70
19952;DHT22;10137;49.406;19.484;2022-09-28T09:18:54;17.20;91.80
19952;DHT22;10137;49.406;19.484;2022-09-28T09:21:38;16.40;92.30
19952;DHT22;10137;49.406;19.484;2022-09-28T09:24:45;15.40;94.80
19952;DHT22;10137;49.406;19.484;2022-09-28T09:27:29;15.10;98.60
19952;DHT22;10137;49.406;19.484;2022-09-28T09:30:04;14.90;99.90
19952;DHT22;10137;49.406;19.484;2022-09-28T09:32:43;14.60;99.90
19952;DHT22;10137;49.406;19.484;2022-09-28T09:35:36;14.50;99.90
19952;DHT22;10137;49.406;19.484;2022-09-28T09:38:22;14.30;99.90
19952;DHT22;10137;49.406;19.484;2022-09-28T09:41:01;14.10;99.90
19952;DHT22;10137;49.406;19.484;2022-09-28T09:43:58;13.70;99.90
19952;DHT22;10137;49.406;19.484;2022-09-28T09:46:34;13.40;99.90
19952;DHT22;10137;49.406;19.484;2022-09-28T09:49:07;13.20;99.90
19952;DHT22;10137;49.406;19.484;2022-09-28T09:51:40;13.20;99.90
19952;DHT22;10137;49.406;19.484;2022-09-28T09:54:24;13.10;99.90
19952;DHT22;10137;49.406;19.484;2022-09-28T09:56:55;13.10;99.90
19952;DHT22;10137;49.406;19.484;2022-09-28T09:59:28;13.10;99.90
19952;DHT22;10137;49.406;19.484;2022-09-28T10:01:56;13.20;99.90
19952;DHT22;10137;49.406;19.484;2022-09-28T10:04:26;12.90;99.90
19952;DHT22;10137;49.406;19.484;2022-09-28T10:06:57;13.10;99.90
19952;DHT22;10137;49.406;19.484;2022-09-28T10:09:30;13.30;99.90
19952;DHT22;10137;49.406;19.484;2022-09-28T10:11:59;13.70;99.90
19952;DHT22;10137;49.406;19.484;2022-09-28T10:14:28;14.20;99.90
19952;DHT22;10137;49.406;19.484;2022-09-28T10:16:57;14.90;99.90
19952;DHT22;10137;49.406;19.484;2022-09-28T10:19:30;15.30;99.90
19952;DHT22;10137;49.406;19.484;2022-09-28T10:22:02;15.60;99.90
19952;DHT22;10137;49.406;19.484;2022-09-28T10:24:33;16.00;99.90
19952;DHT22;10137;49.406;19.484;2022-09-28T10:27:05;16.00;99.90
19952;DHT22;10137;49.406;19.484;2022-09-28T10:29:39;16.10;99.90
19952;DHT22;10137;49.406;19.484;2022-09-28T10:32:20;16.20;99.30
19952;DHT22;10137;49.406;19.484;2022-09-28T10:34:50;16.30;98.60
19952;DHT22;10137;49.406;19.484;2022-09-28T10:37:19;16.50;97.60
19952;DHT22;10137;49.406;19.484;2022-09-28T10:39:53;16.70;98.20
19952;DHT22;10137;49.406;19.484;2022-09-28T10:42:24;16.60;97.70
19952;DHT22;10137;49.406;19.484;2022-09-28T10:44:57;16.70;98.80
19952;DHT22;10137;49.406;19.484;2022-09-28T10:47:28;16.50;98.70
19952;DHT22;10137;49.406;19.484;2022-09-28T10:49:59;16.40;98.60
19952;DHT22;10137;49.406;19.484;2022-09-28T10:52:32;16.30;99.30
19952;DHT22;10137;49.406;19.484;2022-09-28T10:57:49;16.00;98.30
19952;DHT22;10137;49.406;19.484;2022-09-28T11:00:38;15.80;98.70
19952;DHT22;10137;49.406;19.484;2022-09-28T11:03:17;15.70;99.80
19952;DHT22;10137;49.406;19.484;2022-09-28T11:05:58;15.80;99.00
19952;DHT22;10137;49.406;19.484;2022-09-28T11:08:29;15.70;99.10
19952;DHT22;10137;49.406;19.484;2022-09-28T11:11:04;15.90;98.00
19952;DHT22;10137;49.406;19.484;2022-09-28T11:13:44;15.80;98.70
19952;DHT22;10137;49.406;19.484;2022-09-28T11:16:22;15.80;99.90
19952;DHT22;10137;49.406;19.484;2022-09-28T11:18:51;15.70;99.20
19952;DHT22;10137;49.406;19.484;2022-09-28T11:21:23;15.70;99.90
19952;DHT22;10137;49.406;19.484;2022-09-28T11:24:00;15.80;99.80
19952;DHT22;10137;49.406;19.484;2022-09-28T11:26:37;15.80;99.90
19952;DHT22;10137;49.406;19.484;2022-09-28T11:29:18;15.80;99.90
19952;DHT22;10137;49.406;19.484;2022-09-28T11:31:46;16.00;99.90
19952;DHT22;10137;49.406;19.484;2022-09-28T11:34:19;16.20;99.90
19952;DHT22;10137;49.406;19.484;2022-09-28T11:39:55;16.40;99.90
19952;DHT22;10137;49.406;19.484;2022-09-28T11:42:33;16.10;99.90
19952;DHT22;10137;49.406;19.484;2022-09-28T11:45:17;15.70;99.90
19952;DHT22;10137;49.406;19.484;2022-09-28T11:47:54;15.70;99.90
19952;DHT22;10137;49.406;19.484;2022-09-28T11:50:30;15.80;99.90
19952;DHT22;10137;49.406;19.484;2022-09-28T11:53:07;15.60;99.90
19952;DHT22;10137;49.406;19.484;2022-09-28T11:55:41;15.40;99.90
19952;DHT22;10137;49.406;19.484;2022-09-28T11:58:14;15.40;99.90
19952;DHT22;10137;49.406;19.484;2022-09-28T12:00:48;15.20;99.90
19952;DHT22;10137;49.406;19.484;2022-09-28T12:03:20;15.10;99.90
19952;DHT22;10137;49.406;19.484;2022-09-28T12:05:54;14.90;99.90
19952;DHT22;10137;49.406;19.484;2022-09-28T12:08:25;15.00;99.90
19952;DHT22;10137;49.406;19.484;2022-09-28T12:10:58;15.00;99.90
19952;DHT22;10137;49.406;19.484;2022-09-28T12:13:32;15.00;99.90
19952;DHT22;10137;49.406;19.484;2022-09-28T12:16:04;14.90;99.90
19952;DHT22;10137;49.406;19.484;2022-09-28T12:18:37;15.00;99.90
19952;DHT22;10137;49.406;19.484;2022-09-28T12:21:20;14.90;99.90
19952;DHT22;10137;49.406;19.484;2022-09-28T12:23:53;15.00;99.90
19952;DHT22;10137;49.406;19.484;2022-09-28T12:26:30;15.00;99.90
19952;DHT22;10137;49.406;19.484;2022-09-28T12:29:05;14.80;99.90
19952;DHT22;10137;49.406;19.484;2022-09-28T12:31:44;14.80;99.90
19952;DHT22;10137;49.406;19.484;2022-09-28T12:34:16;15.00;99.90
19952;DHT22;10137;49.406;19.484;2022-09-28T12:36:54;15.00;99.90
19952;DHT22;10137;49.406;19.484;2022-09-28T12:39:46;15.00;99.90
19952;DHT22;10137;49.406;19.484;2022-09-28T12:42:34;15.10;99.90
19952;DHT22;10137;49.406;19.484;2022-09-28T12:45:42;15.20;99.90
19952;DHT22;10137;49.406;19.484;2022-09-28T12:48:46;15.20;99.90
19952;DHT22;10137;49.406;19.484;2022-09-28T12:51:32;15.10;99.90
19952;DHT22;10137;49.406;19.484;2022-09-28T12:54:14;15.10;99.90
19952;DHT22;10137;49.406;19.484;2022-09-28T12:56:55;15.10;99.90
19952;DHT22;10137;49.406;19.484;2022-09-28T12:59:29;15.20;99.90
19952;DHT22;10137;49.406;19.484;2022-09-28T13:05:39;14.80;99.90
19952;DHT22;10137;49.406;19.484;2022-09-28T13:08:14;14.80;99.90
19952;DHT22;10137;49.406;19.484;2022-09-28T13:10:50;14.90;99.90
19952;DHT22;10137;49.406;19.484;2022-09-28T13:13:31;14.70;99.90
19952;DHT22;10137;49.406;19.484;2022-09-28T13:16:08;14.60;99.90
19952;DHT22;10137;49.406;19.484;2022-09-28T13:18:45;14.50;99.90
19952;DHT22;10137;49.406;19.484;2022-09-28T13:21:24;14.40;99.90
19952;DHT22;10137;49.406;19.484;2022-09-28T13:23:59;14.40;99.90
19952;DHT22;10137;49.406;19.484;2022-09-28T13:26:34;14.30;99.90
19952;DHT22;10137;49.406;19.484;2022-09-28T13:29:10;14.30;99.90
19952;DHT22;10137;49.406;19.484;2022-09-28T13:31:46;14.20;99.90
19952;DHT22;10137;49.406;19.484;2022-09-28T13:34:21;14.30;99.90
19952;DHT22;10137;49.406;19.484;2022-09-28T13:37:16;14.10;99.90
19952;DHT22;10137;49.406;19.484;2022-09-28T13:39:50;14.10;99.90
19952;DHT22;10137;49.406;19.484;2022-09-28T13:42:29;13.90;99.90
19952;DHT22;10137;49.406;19.484;2022-09-28T13:48:10;13.80;99.90
19952;DHT22;10137;49.406;19.484;2022-09-28T13:51:09;13.70;99.90
19952;DHT22;10137;49.406;19.484;2022-09-28T13:54:00;13.60;99.90
19952;DHT22;10137;49.406;19.484;2022-09-28T13:56:38;13.60;99.90
19952;DHT22;10137;49.406;19.484;2022-09-28T13:59:16;13.50;99.90
19952;DHT22;10137;49.406;19.484;2022-09-28T14:01:51;13.50;99.90
19952;DHT22;10137;49.406;19.484;2022-09-28T14:04:23;13.40;99.90
19952;DHT22;10137;49.406;19.484;2022-09-28T14:06:54;13.30;99.90
19952;DHT22;10137;49.406;19.484;2022-09-28T14:09:43;13.30;99.90
19952;DHT22;10137;49.406;19.484;2022-09-28T14:12:42;13.30;99.90
19952;DHT22;10137;49.406;19.484;2022-09-28T14:15:37;13.30;99.90
19952;DHT22;10137;49.406;19.484;2022-09-28T14:18:25;13.30;99.90
19952;DHT22;10137;49.406;19.484;2022-09-28T14:21:18;13.20;99.90
19952;DHT22;10137;49.406;19.484;2022-09-28T14:23:59;13.20;99.90
19952;DHT22;10137;49.406;19.484;2022-09-28T14:29:30;13.20;99.90
19952;DHT22;10137;49.406;19.484;2022-09-28T14:32:21;13.10;99.90
19952;DHT22;10137;49.406;19.484;2022-09-28T14:34:59;13.10;99.90
19952;DHT22;10137;49.406;19.484;2022-09-28T14:37:32;13.10;99.90
19952;DHT22;10137;49.406;19.484;2022-09-28T14:40:22;13.00;99.90
19952;DHT22;10137;49.406;19.484;2022-09-28T14:43:24;13.00;99.90
19952;DHT22;10137;49.406;19.484;2022-09-28T14:46:26;13.00;99.90
19952;DHT22;10137;49.406;19.484;2022-09-28T14:48:57;13.00;99.90
19952;DHT22;10137;49.406;19.484;2022-09-28T14:51:58;13.00;99.90
19952;DHT22;10137;49.406;19.484;2022-09-28T14:54:48;12.90;99.90
19952;DHT22;10137;49.406;19.484;2022-09-28T14:57:21;12.90;99.90
19952;DHT22;10137;49.406;19.484;2022-09-28T14:59:50;12.90;99.90
19952;DHT22;10137;49.406;19.484;2022-09-28T15:02:22;12.90;99.90
19952;DHT22;10137;49.406;19.484;2022-09-28T15:04:53;12.90;99.90
19952;DHT22;10137;49.406;19.484;2022-09-28T15:07:25;12.90;99.90
19952;DHT22;10137;49.406;19.484;2022-09-28T15:09:55;12.90;99.90
19952;DHT22;10137;49.406;19.484;2022-09-28T15:12:27;12.90;99.90
19952;DHT22;10137;49.406;19.484;2022-09-28T15:14:58;12.80;99.90
19952;DHT22;10137;49.406;19.484;2022-09-28T15:17:28;12.80;99.90
19952;DHT22;10137;49.406;19.484;2022-09-28T15:20:22;12.80;99.90
19952;DHT22;10137;49.406;19.484;2022-09-28T15:22:53;12.90;99.90
19952;DHT22;10137;49.406;19.484;2022-09-28T15:25:24;12.90;99.90
19952;DHT22;10137;49.406;19.484;2022-09-28T15:27:56;12.90;99.90
19952;DHT22;10137;49.406;19.484;2022-09-28T15:30:26;12.90;99.90
19952;DHT22;10137;49.406;19.484;2022-09-28T15:32:57;12.90;99.90
19952;DHT22;10137;49.406;19.484;2022-09-28T15:35:47;12.90;99.90
19952;DHT22;10137;49.406;19.484;2022-09-28T15:38:16;12.80;99.90
19952;DHT22;10137;49.406;19.484;2022-09-28T15:40:44;12.80;99.90
19952;DHT22;10137;49.406;19.484;2022-09-28T15:43:29;12.70;99.90
19952;DHT22;10137;49.406;19.484;2022-09-28T15:46:04;12.60;99.90
19952;DHT22;10137;49.406;19.484;2022-09-28T15:48:38;12.50;99.90
19952;DHT22;10137;49.406;19.484;2022-09-28T15:51:10;12.40;99.90
19952;DHT22;10137;49.406;19.484;2022-09-28T15:53:49;12.30;99.90
19952;DHT22;10137;49.406;19.484;2022-09-28T15:56:20;12.30;99.90
19952;DHT22;10137;49.406;19.484;2022-09-28T15:59:08;12.40;99.90
19952;DHT22;10137;49.406;19.484;2022-09-28T16:01:37;12.30;99.90
19952;DHT22;10137;49.406;19.484;2022-09-28T16:04:42;12.20;99.90
19952;DHT22;10137;49.406;19.484;2022-09-28T16:07:32;12.20;99.90
19952;DHT22;10137;49.406;19.484;2022-09-28T16:10:27;12.10;99.90
19952;DHT22;10137;49.406;19.484;2022-09-28T16:13:05;12.10;99.90
19952;DHT22;10137;49.406;19.484;2022-09-28T16:15:37;12.20;99.90
19952;DHT22;10137;49.406;19.484;2022-09-28T16:18:15;12.10;99.90
19952;DHT22;10137;49.406;19.484;2022-09-28T16:20:46;12.10;99.90
19952;DHT22;10137;49.406;19.484;2022-09-28T16:23:22;12.20;99.90
19952;DHT22;10137;49.406;19.484;2022-09-28T16:25:54;12.20;99.90
19952;DHT22;10137;49.406;19.484;2022-09-28T16:28:46;12.20;99.90
19952;DHT22;10137;49.406;19.484;2022-09-28T16:31:30;12.20;99.90